Time;durP1;ratioP1;P1;durP2;ratioP2;P2;SDS_P1;SDS_P2;PMS_P1;PMS_P2;Temp;Humidity;BMP_temperature;BMP_pressure;BME280_temperature;BME280_humidity;BME280_pressure;Samples;Min_cycle;Max_cycle;Signal;HPM_P1;HPM_P2
2022/09/04 00:00:58;;;;;;;7.57;6.35;;;18.50;99.90;;;;;;4995380;28;20415;-52
2022/09/04 00:03:45;;;;;;;7.20;5.90;;;18.40;99.90;;;;;;4996176;28;20030;-52
2022/09/04 00:06:19;;;;;;;7.10;6.13;;;18.40;99.90;;;;;;4995669;28;20041;-52
2022/09/04 00:09:16;;;;;;;8.18;6.43;;;18.40;99.90;;;;;;4996316;28;20142;-52
2022/09/04 00:12:03;;;;;;;7.22;6.32;;;18.40;99.90;;;;;;4982883;28;20446;-52
2022/09/04 00:14:37;;;;;;;7.13;6.15;;;18.50;99.90;;;;;;4996305;28;20435;-53
2022/09/04 00:17:12;;;;;;;8.25;6.10;;;18.50;99.90;;;;;;4996115;28;20039;-52
2022/09/04 00:20:20;;;;;;;6.90;6.00;;;18.60;99.90;;;;;;4995715;28;20097;-52
2022/09/04 00:22:56;;;;;;;8.70;6.10;;;18.70;99.90;;;;;;4987517;28;20423;-53
2022/09/04 00:25:37;;;;;;;7.13;6.10;;;18.80;99.90;;;;;;4995427;28;20026;-52
2022/09/04 00:28:17;;;;;;;7.32;6.18;;;18.80;99.90;;;;;;4995862;28;20066;-52
2022/09/04 00:31:04;;;;;;;7.90;6.50;;;18.70;99.90;;;;;;4995896;28;20046;-52
2022/09/04 00:33:50;;;;;;;8.68;6.57;;;18.70;99.90;;;;;;4995621;28;20034;-53
2022/09/04 00:36:18;;;;;;;8.85;6.45;;;18.60;99.90;;;;;;4995496;28;20054;-52
2022/09/04 00:38:50;;;;;;;8.20;6.45;;;18.60;99.90;;;;;;4995639;28;20042;-53
2022/09/04 00:41:31;;;;;;;8.87;7.03;;;18.60;99.90;;;;;;4995561;28;20042;-53
2022/09/04 00:44:31;;;;;;;8.20;7.40;;;18.80;99.90;;;;;;4994953;28;20061;-52
2022/09/04 00:47:05;;;;;;;8.60;7.10;;;18.70;99.90;;;;;;4994900;28;20046;-52
2022/09/04 00:49:35;;;;;;;9.27;6.80;;;18.50;99.90;;;;;;4995134;28;20060;-51
2022/09/04 00:52:28;;;;;;;8.13;7.13;;;18.40;99.90;;;;;;4994426;28;20034;-51
2022/09/04 00:55:21;;;;;;;9.02;7.10;;;18.40;99.90;;;;;;4995217;28;20443;-52
2022/09/04 00:58:16;;;;;;;10.95;7.55;;;18.20;99.90;;;;;;4995012;28;20046;-51
2022/09/04 01:00:46;;;;;;;8.25;7.07;;;18.20;99.90;;;;;;4994892;28;20105;-51
2022/09/04 01:03:33;;;;;;;8.35;7.18;;;18.20;99.90;;;;;;4994929;28;20069;-52
2022/09/04 01:06:16;;;;;;;12.38;8.18;;;18.00;99.90;;;;;;4994921;28;20483;-52
2022/09/04 01:09:00;;;;;;;;;;;18.20;99.90;;;;;;4995465;28;20041;-52
2022/09/04 01:11:57;;;;;;;9.75;7.53;;;18.10;99.90;;;;;;4994949;28;19910;-52
2022/09/04 01:14:40;;;;;;;10.20;7.15;;;17.90;99.90;;;;;;4994796;28;20025;-53
2022/09/04 01:17:30;;;;;;;12.02;8.90;;;17.80;99.90;;;;;;4994117;28;20038;-52
2022/09/04 01:20:31;;;;;;;12.02;8.23;;;17.80;99.90;;;;;;4995036;28;20066;-52
2022/09/04 01:23:05;;;;;;;11.38;8.00;;;17.80;99.90;;;;;;4995042;28;20062;-52
2022/09/04 01:25:57;;;;;;;10.52;7.70;;;17.80;99.90;;;;;;4994300;28;20034;-52
2022/09/04 01:28:55;;;;;;;11.40;8.60;;;17.60;99.90;;;;;;4995075;28;20030;-52
2022/09/04 01:31:49;;;;;;;9.88;8.00;;;17.70;99.90;;;;;;4974428;28;20039;-52
2022/09/04 01:34:38;;;;;;;8.80;7.70;;;17.60;99.90;;;;;;4991576;28;20046;-52
2022/09/04 01:37:26;;;;;;;12.30;7.82;;;17.80;99.90;;;;;;4994336;28;20049;-52
2022/09/04 01:40:21;;;;;;;10.45;7.70;;;17.80;99.90;;;;;;4994781;28;20037;-52
2022/09/04 01:42:56;;;;;;;12.80;8.35;;;17.70;99.90;;;;;;4968926;28;20110;-53
2022/09/04 01:45:32;;;;;;;9.65;8.70;;;17.80;99.90;;;;;;4994323;28;20084;-52
2022/09/04 01:48:03;;;;;;;9.90;8.25;;;17.90;99.90;;;;;;4994650;28;20041;-53
2022/09/04 01:50:31;;;;;;;9.00;8.10;;;17.80;99.90;;;;;;4994595;28;20068;-52
2022/09/04 01:53:13;;;;;;;9.40;7.60;;;17.80;99.90;;;;;;4994793;28;20100;-52
2022/09/04 01:55:57;;;;;;;12.90;8.68;;;17.70;99.90;;;;;;4994489;28;20018;-51
2022/09/04 01:58:51;;;;;;;11.18;9.05;;;17.60;99.90;;;;;;4994280;28;20042;-51
2022/09/04 02:01:41;;;;;;;15.85;9.55;;;17.50;99.90;;;;;;4994212;28;20660;-52
2022/09/04 02:04:20;;;;;;;11.88;9.27;;;17.50;99.90;;;;;;4994284;28;20069;-51
2022/09/04 02:07:14;;;;;;;10.30;9.27;;;17.50;99.90;;;;;;4993940;28;20073;-51
2022/09/04 02:10:09;;;;;;;13.77;9.40;;;17.40;99.90;;;;;;4994294;28;20061;-51
2022/09/04 02:12:57;;;;;;;15.48;10.20;;;17.30;99.90;;;;;;4994221;28;20057;-52
2022/09/04 02:15:52;;;;;;;11.80;8.65;;;17.20;99.90;;;;;;4993555;28;20101;-51
2022/09/04 02:18:44;;;;;;;14.13;9.65;;;17.10;99.90;;;;;;4994140;28;20045;-51
2022/09/04 02:21:24;;;;;;;11.52;9.18;;;17.00;99.90;;;;;;4993670;28;20035;-52
2022/09/04 02:24:07;;;;;;;12.63;8.32;;;17.00;99.90;;;;;;5000161;28;20042;-52
2022/09/04 02:26:41;;;;;;;9.45;8.45;;;17.00;99.90;;;;;;4999681;28;20042;-51
2022/09/04 02:29:33;;;;;;;11.82;10.38;;;16.90;99.90;;;;;;5000097;28;20057;-51
2022/09/04 02:32:19;;;;;;;11.50;10.30;;;16.80;99.90;;;;;;5000023;28;20428;-51
2022/09/04 02:35:16;;;;;;;14.40;9.95;;;16.80;99.90;;;;;;5000123;28;20261;-51
2022/09/04 02:37:52;;;;;;;11.60;10.40;;;16.80;99.90;;;;;;4995940;28;20050;-50
2022/09/04 02:40:36;;;;;;;12.25;10.63;;;16.80;99.90;;;;;;5000244;28;20395;-51
2022/09/04 02:43:20;;;;;;;11.20;10.00;;;16.80;99.90;;;;;;5000168;28;20069;-51
2022/09/04 02:46:11;;;;;;;11.95;10.68;;;16.70;99.90;;;;;;4998316;28;20313;-52
2022/09/04 02:49:12;;;;;;;12.55;10.50;;;16.80;99.90;;;;;;5000017;28;20038;-51
2022/09/04 02:52:05;;;;;;;14.68;11.35;;;16.80;99.90;;;;;;4984425;28;20038;-51
2022/09/04 02:54:40;;;;;;;12.68;11.18;;;16.90;99.90;;;;;;5000044;28;20045;-51
2022/09/04 02:57:39;;;;;;;17.00;12.27;;;17.00;99.90;;;;;;5000161;28;20046;-51
2022/09/04 03:00:24;;;;;;;13.43;12.00;;;17.00;99.90;;;;;;4999496;28;20080;-51
2022/09/04 03:03:28;;;;;;;14.45;12.90;;;16.90;99.90;;;;;;4999743;28;20073;-51
2022/09/04 03:06:22;;;;;;;18.33;13.63;;;16.90;99.90;;;;;;4958210;28;20500;-52
2022/09/04 03:09:01;;;;;;;15.38;13.63;;;16.90;99.90;;;;;;4945070;28;20069;-52
2022/09/04 03:11:37;;;;;;;15.65;13.82;;;17.00;99.90;;;;;;4989645;28;20113;-51
2022/09/04 03:14:31;;;;;;;15.30;13.20;;;17.00;99.90;;;;;;5000699;28;20104;-52
2022/09/04 03:17:10;;;;;;;19.57;13.50;;;17.20;99.90;;;;;;5000153;28;20049;-51
2022/09/04 03:19:51;;;;;;;21.08;15.60;;;17.20;99.90;;;;;;5000107;28;20033;-51
2022/09/04 03:22:29;;;;;;;17.38;14.40;;;17.30;99.90;;;;;;5000368;28;20038;-51
2022/09/04 03:25:22;;;;;;;18.65;15.95;;;17.20;99.90;;;;;;5000314;28;20050;-52
2022/09/04 03:27:47;;;;;;;;;;;17.20;99.90;;;;;;5000279;28;20031;-51
2022/09/04 03:30:14;;;;;;;18.00;15.77;;;17.20;99.90;;;;;;5000041;28;19912;-53
2022/09/04 03:33:04;;;;;;;19.77;16.30;;;17.20;99.90;;;;;;4999501;28;20026;-51
2022/09/04 03:36:04;;;;;;;19.98;17.42;;;17.00;99.90;;;;;;4995447;28;20058;-52
2022/09/04 03:38:47;;;;;;;20.33;16.52;;;17.00;99.90;;;;;;4988200;28;20038;-52
2022/09/04 03:41:29;;;;;;;20.48;17.08;;;16.90;99.90;;;;;;4996449;28;20110;-52
2022/09/04 03:44:12;;;;;;;19.48;17.38;;;16.90;99.90;;;;;;4995129;28;20113;-52
2022/09/04 03:46:59;;;;;;;20.30;17.58;;;16.90;99.90;;;;;;4996158;28;20030;-52
2022/09/04 03:49:48;;;;;;;20.05;17.83;;;17.00;99.90;;;;;;4996903;28;20117;-52
2022/09/04 03:52:40;;;;;;;23.35;17.52;;;16.90;99.90;;;;;;4996198;28;20027;-52
2022/09/04 03:55:32;;;;;;;27.00;19.83;;;16.80;99.90;;;;;;4996416;28;20395;-51
2022/09/04 03:58:03;;;;;;;27.40;21.25;;;16.90;99.90;;;;;;4995999;28;20061;-51
2022/09/04 04:00:45;;;;;;;27.52;21.95;;;16.90;99.90;;;;;;4996226;28;20026;-52
2022/09/04 04:04:24;;;;;;;32.72;24.02;;;16.90;99.90;;;;;;4996451;28;20041;-52
2022/09/04 04:07:08;;;;;;;54.63;33.65;;;16.90;99.90;;;;;;4919826;28;20040;-52
2022/09/04 04:09:47;;;;;;;59.90;38.72;;;17.00;99.90;;;;;;4974082;28;20037;-51
2022/09/04 04:12:36;;;;;;;86.07;45.42;;;17.00;99.90;;;;;;4989399;28;20069;-52
2022/09/04 04:15:14;;;;;;;96.10;48.95;;;17.00;99.90;;;;;;4996016;28;20066;-52
2022/09/04 04:18:10;;;;;;;135.38;49.95;;;17.00;99.90;;;;;;4995483;28;20369;-51
2022/09/04 04:20:43;;;;;;;141.13;54.42;;;16.90;99.90;;;;;;4995789;28;20053;-51
2022/09/04 04:23:20;;;;;;;;;;;16.90;99.90;;;;;;4996361;28;20045;-51
2022/09/04 04:26:09;;;;;;;169.18;52.63;;;16.90;99.90;;;;;;4995643;28;20001;-51
2022/09/04 04:29:01;;;;;;;152.38;54.50;;;16.90;99.90;;;;;;4995797;28;20526;-51
2022/09/04 04:32:09;;;;;;;201.48;59.33;;;16.90;99.90;;;;;;4996100;28;20506;-51
2022/09/04 04:35:03;;;;;;;128.73;58.00;;;16.90;99.90;;;;;;4995741;28;20026;-52
2022/09/04 04:37:34;;;;;;;189.50;59.72;;;16.90;99.90;;;;;;4978225;28;20484;-52
2022/09/04 04:40:22;;;;;;;231.45;58.50;;;16.90;99.90;;;;;;4995637;28;20040;-52
2022/09/04 04:43:14;;;;;;;139.02;55.78;;;17.00;99.90;;;;;;4995642;28;20022;-52
2022/09/04 04:46:07;;;;;;;212.25;61.80;;;16.90;99.90;;;;;;4993075;28;20057;-51
2022/09/04 04:49:08;;;;;;;132.63;57.45;;;16.90;99.90;;;;;;4995618;28;20096;-52
2022/09/04 04:52:15;;;;;;;131.77;50.25;;;16.90;99.90;;;;;;4986132;28;20125;-52
2022/09/04 04:55:12;;;;;;;130.20;51.95;;;16.90;99.90;;;;;;4995283;28;20023;-52
2022/09/04 04:58:14;;;;;;;188.98;56.60;;;16.90;99.90;;;;;;4994842;28;20046;-52
2022/09/04 05:00:49;;;;;;;180.38;52.25;;;16.80;99.90;;;;;;4994984;28;20030;-52
2022/09/04 05:03:47;;;;;;;127.63;52.72;;;16.90;99.90;;;;;;4993547;28;20026;-52
2022/09/04 05:06:21;;;;;;;93.07;47.65;;;16.90;99.90;;;;;;4994822;28;20102;-52
2022/09/04 05:09:06;;;;;;;97.13;48.42;;;16.90;99.90;;;;;;4995743;28;20027;-52
2022/09/04 05:11:47;;;;;;;87.20;46.10;;;17.00;99.90;;;;;;4994994;28;20034;-52
2022/09/04 05:14:43;;;;;;;89.78;42.53;;;16.90;99.90;;;;;;4995061;28;20395;-52
2022/09/04 05:17:39;;;;;;;84.10;41.03;;;17.00;99.90;;;;;;4994960;28;20392;-52
2022/09/04 05:20:46;;;;;;;86.38;41.10;;;17.00;99.90;;;;;;4994733;28;20046;-52
2022/09/04 05:23:40;;;;;;;91.50;39.70;;;17.10;99.90;;;;;;4995196;28;20030;-52
2022/09/04 05:26:24;;;;;;;88.03;38.95;;;17.00;99.90;;;;;;4994262;28;20391;-52
2022/09/04 05:29:24;;;;;;;77.32;39.88;;;17.00;99.90;;;;;;4994554;28;20511;-52
2022/09/04 05:32:31;;;;;;;122.45;41.72;;;17.10;99.90;;;;;;4992474;28;20128;-52
2022/09/04 05:35:19;;;;;;;98.22;42.08;;;17.00;99.90;;;;;;4994400;28;20475;-52
2022/09/04 05:38:13;;;;;;;77.13;43.03;;;17.00;99.90;;;;;;4994076;28;20049;-51
2022/09/04 05:40:50;;;;;;;81.03;42.35;;;17.00;99.90;;;;;;4994193;28;20022;-52
2022/09/04 05:43:43;;;;;;;71.93;41.47;;;17.10;99.90;;;;;;4993680;28;20034;-52
2022/09/04 05:46:37;;;;;;;69.68;39.97;;;17.10;99.90;;;;;;4993526;28;20480;-52
2022/09/04 05:49:45;;;;;;;68.22;39.92;;;17.10;99.90;;;;;;4994069;28;20085;-52
2022/09/04 05:52:50;;;;;;;71.63;39.83;;;17.10;99.90;;;;;;4961320;28;20496;-51
2022/09/04 05:55:43;;;;;;;74.03;39.25;;;17.00;99.90;;;;;;4994585;28;20022;-52
2022/09/04 05:58:24;;;;;;;67.97;39.15;;;16.90;99.90;;;;;;4993794;28;20038;-51
2022/09/04 06:01:22;;;;;;;69.22;39.47;;;16.90;99.90;;;;;;4994361;28;20428;-51
2022/09/04 06:04:06;;;;;;;62.70;37.65;;;16.80;99.90;;;;;;4994134;28;20042;-50
2022/09/04 06:07:03;;;;;;;55.35;35.53;;;16.80;99.90;;;;;;4993743;28;20172;-50
2022/09/04 06:10:02;;;;;;;55.03;34.67;;;16.80;99.90;;;;;;4977651;28;20069;-52
2022/09/04 06:12:39;;;;;;;54.00;35.03;;;16.70;99.90;;;;;;4993985;28;20543;-52
2022/09/04 06:15:24;;;;;;;50.45;32.85;;;16.80;99.90;;;;;;4993756;28;20053;-52
2022/09/04 06:18:02;;;;;;;43.05;30.45;;;16.90;99.90;;;;;;4993324;28;20551;-50
2022/09/04 06:20:50;;;;;;;41.35;29.67;;;16.90;99.90;;;;;;4993404;28;20364;-50
2022/09/04 06:23:37;;;;;;;36.00;28.25;;;16.90;99.90;;;;;;4994303;28;20038;-50
2022/09/04 06:26:06;;;;;;;36.88;27.50;;;17.00;99.90;;;;;;4991905;28;20494;-49
2022/09/04 06:28:37;;;;;;;35.50;26.40;;;17.10;99.90;;;;;;4993203;28;20070;-52
2022/09/04 06:31:12;;;;;;;39.28;26.42;;;17.20;99.90;;;;;;4993563;28;20029;-52
2022/09/04 06:34:01;;;;;;;32.95;23.35;;;17.30;99.90;;;;;;4993201;28;20040;-52
2022/09/04 06:36:45;;;;;;;28.13;21.75;;;17.40;99.90;;;;;;4993496;28;20042;-52
2022/09/04 06:39:16;;;;;;;26.10;20.45;;;17.30;99.90;;;;;;4993840;28;20437;-52
2022/09/04 06:42:06;;;;;;;27.58;18.85;;;17.40;99.90;;;;;;4993462;28;20038;-52
2022/09/04 06:44:38;;;;;;;26.63;19.20;;;17.50;99.90;;;;;;4993634;28;20029;-51
2022/09/04 06:47:21;;;;;;;23.70;19.15;;;17.50;99.90;;;;;;4993296;28;20105;-51
2022/09/04 06:50:08;;;;;;;24.50;18.80;;;17.60;99.90;;;;;;4993427;28;20502;-52
2022/09/04 06:52:45;;;;;;;22.15;17.83;;;17.80;99.90;;;;;;4993482;28;20093;-52
2022/09/04 06:55:23;;;;;;;20.33;17.08;;;18.00;99.90;;;;;;4992891;28;20118;-52
2022/09/04 06:57:58;;;;;;;20.60;16.60;;;18.10;99.90;;;;;;4993315;28;20403;-53
2022/09/04 07:00:29;;;;;;;20.02;16.92;;;18.10;99.90;;;;;;4992844;28;20495;-52
2022/09/04 07:03:13;;;;;;;18.83;16.77;;;18.40;99.90;;;;;;4992911;28;20434;-52
2022/09/04 07:06:04;;;;;;;18.98;16.48;;;18.50;99.90;;;;;;4992555;28;20030;-50
2022/09/04 07:08:50;;;;;;;23.52;16.98;;;18.60;99.90;;;;;;4993170;28;20034;-50
2022/09/04 07:11:16;;;;;;;19.27;15.50;;;18.70;99.90;;;;;;4996384;28;20038;-50
2022/09/04 07:14:18;;;;;;;17.67;15.68;;;18.90;99.90;;;;;;4996370;28;20031;-50
2022/09/04 07:17:05;;;;;;;19.27;16.52;;;19.00;99.90;;;;;;4996452;28;20042;-50
2022/09/04 07:19:41;;;;;;;19.58;15.50;;;19.10;99.90;;;;;;4996458;28;20057;-50
2022/09/04 07:22:25;;;;;;;17.83;16.02;;;19.30;99.90;;;;;;4996221;28;20486;-50
2022/09/04 07:25:16;;;;;;;22.38;17.02;;;19.50;99.90;;;;;;4996218;28;20030;-50
2022/09/04 07:27:47;;;;;;;22.58;16.38;;;19.60;99.90;;;;;;4996215;28;20034;-50
2022/09/04 07:30:15;;;;;;;20.77;16.55;;;19.70;99.90;;;;;;4996007;28;20027;-50
2022/09/04 07:32:51;;;;;;;21.92;16.00;;;20.10;99.90;;;;;;4995287;28;20487;-50
2022/09/04 07:35:39;;;;;;;18.65;14.38;;;20.70;99.90;;;;;;4995333;28;20077;-50
2022/09/04 07:38:44;;;;;;;14.23;11.85;;;21.90;99.90;;;;;;4995340;28;20558;-50
2022/09/04 07:41:27;;;;;;;11.85;10.45;;;22.90;99.90;;;;;;4994840;28;20037;-50
2022/09/04 07:44:28;;;;;;;10.60;9.38;;;23.10;99.90;;;;;;4995400;28;20046;-50
2022/09/04 07:47:12;;;;;;;10.07;8.90;;;23.00;99.90;;;;;;4995513;28;20045;-53
2022/09/04 07:49:56;;;;;;;10.07;8.43;;;23.50;99.90;;;;;;4995070;28;20049;-53
2022/09/04 07:53:06;;;;;;;10.38;7.68;;;23.70;99.90;;;;;;4994743;28;20045;-52
2022/09/04 07:55:47;;;;;;;7.82;7.10;;;23.80;99.90;;;;;;4994108;28;20121;-54
2022/09/04 07:58:27;;;;;;;7.10;6.40;;;24.70;99.90;;;;;;4994479;28;20046;-54
2022/09/04 08:01:17;;;;;;;7.95;6.68;;;24.80;99.90;;;;;;4994280;28;20022;-54
2022/09/04 08:04:04;;;;;;;7.90;6.93;;;24.90;99.90;;;;;;4994150;28;20038;-54
2022/09/04 08:07:01;;;;;;;10.52;6.20;;;24.90;99.90;;;;;;4994200;28;20248;-54
2022/09/04 08:09:57;;;;;;;7.68;6.10;;;24.90;99.90;;;;;;4994514;28;20229;-54
2022/09/04 08:12:34;;;;;;;6.78;6.05;;;24.70;99.90;;;;;;4994221;28;20035;-54
2022/09/04 08:15:51;;;;;;;9.07;6.70;;;25.10;99.90;;;;;;4993998;28;20030;-54
2022/09/04 08:18:51;;;;;;;7.90;6.25;;;25.10;99.90;;;;;;4968770;28;20038;-53
2022/09/04 08:21:29;;;;;;;7.80;6.13;;;26.00;99.90;;;;;;4993270;28;20472;-53
2022/09/04 08:24:11;;;;;;;9.05;7.45;;;25.90;99.90;;;;;;4993731;28;20585;-53
2022/09/04 08:26:58;;;;;;;8.45;7.30;;;25.30;99.90;;;;;;4994138;28;20117;-53
2022/09/04 08:29:39;;;;;;;11.60;7.38;;;25.30;99.90;;;;;;4994113;28;20027;-53
2022/09/04 08:32:24;;;;;;;8.90;7.97;;;25.60;99.90;;;;;;4993739;28;20034;-54
2022/09/04 08:35:08;;;;;;;10.00;7.82;;;25.80;99.90;;;;;;4994257;28;20093;-52
2022/09/04 08:37:59;;;;;;;12.52;9.55;;;25.60;99.90;;;;;;4993671;28;20037;-52
2022/09/04 08:40:41;;;;;;;10.97;9.17;;;25.70;99.90;;;;;;4993747;28;20022;-52
2022/09/04 08:43:16;;;;;;;14.18;7.88;;;25.50;99.90;;;;;;4994035;28;20348;-52
2022/09/04 08:46:00;;;;;;;10.25;8.30;;;25.60;99.90;;;;;;4993808;28;20124;-52
2022/09/04 08:48:45;;;;;;;14.73;8.63;;;25.90;99.90;;;;;;4993658;28;20046;-52
2022/09/04 08:51:21;;;;;;;9.13;6.53;;;26.10;99.90;;;;;;4993923;28;20022;-53
2022/09/04 08:53:53;;;;;;;6.78;5.80;;;25.90;99.90;;;;;;4993644;28;20403;-53
2022/09/04 08:56:19;;;;;;;7.30;5.95;;;25.70;99.90;;;;;;4993160;28;20301;-53
2022/09/04 08:59:12;;;;;;;8.27;5.93;;;26.20;99.90;;;;;;4993707;28;20038;-53
2022/09/04 09:02:08;;;;;;;6.38;4.90;;;26.30;99.90;;;;;;4992952;28;20423;-53
2022/09/04 09:05:00;;;;;;;7.75;4.70;;;26.80;99.90;;;;;;4993590;28;20388;-53
2022/09/04 09:07:46;;;;;;;7.55;4.28;;;26.70;99.90;;;;;;4990389;28;20041;-54
2022/09/04 09:10:37;;;;;;;6.57;4.25;;;26.60;99.90;;;;;;4993168;28;20435;-54
2022/09/04 09:13:06;;;;;;;5.30;4.22;;;27.30;99.90;;;;;;4986127;28;20042;-53
2022/09/04 09:15:38;;;;;;;5.43;4.10;;;27.00;99.90;;;;;;4993051;28;20052;-53
2022/09/04 09:18:19;;;;;;;7.13;3.88;;;26.80;99.90;;;;;;4993186;28;20038;-53
2022/09/04 09:21:06;;;;;;;6.82;3.90;;;27.20;99.90;;;;;;4992699;28;20487;-53
2022/09/04 09:24:10;;;;;;;5.65;3.30;;;27.30;99.90;;;;;;4992458;28;20379;-53
2022/09/04 09:26:58;;;;;;;7.22;2.70;;;27.30;99.80;;;;;;4992248;28;20034;-53
2022/09/04 09:29:26;;;;;;;5.07;3.10;;;27.40;98.70;;;;;;4992983;28;20049;-53
2022/09/04 09:32:15;;;;;;;4.30;3.10;;;27.90;98.00;;;;;;4991922;28;20483;-53
2022/09/04 09:35:01;;;;;;;8.30;2.55;;;28.30;96.70;;;;;;4992853;28;20026;-54
2022/09/04 09:37:36;;;;;;;3.78;2.50;;;27.60;96.90;;;;;;4992401;28;20034;-53
2022/09/04 09:40:01;;;;;;;3.60;2.30;;;27.50;97.10;;;;;;4991361;28;20026;-53
2022/09/04 09:42:38;;;;;;;5.80;2.13;;;27.90;95.90;;;;;;4992097;28;20042;-53
2022/09/04 09:45:20;;;;;;;4.05;2.00;;;28.10;95.60;;;;;;4992470;28;20029;-53
2022/09/04 09:47:49;;;;;;;2.80;1.88;;;28.60;94.40;;;;;;4992634;28;20121;-54
2022/09/04 09:50:19;;;;;;;3.90;2.00;;;28.80;92.70;;;;;;4992296;28;20030;-54
2022/09/04 09:53:15;;;;;;;10.07;1.60;;;28.60;93.00;;;;;;4992471;28;20396;-54
2022/09/04 09:56:02;;;;;;;4.25;1.70;;;28.00;94.10;;;;;;4992073;28;20416;-54
2022/09/04 09:58:49;;;;;;;4.40;2.20;;;27.60;95.30;;;;;;4992824;28;20050;-54
2022/09/04 10:01:25;;;;;;;5.65;1.45;;;27.80;93.60;;;;;;4992311;28;20065;-54
2022/09/04 10:04:10;;;;;;;3.38;1.70;;;27.90;92.30;;;;;;4992381;28;20563;-54
2022/09/04 10:07:14;;;;;;;4.50;1.70;;;27.90;92.60;;;;;;4991974;28;20042;-54
2022/09/04 10:10:20;;;;;;;4.60;1.55;;;28.10;91.70;;;;;;4992352;28;20030;-54
2022/09/04 10:12:58;;;;;;;4.18;1.52;;;27.90;90.80;;;;;;4992196;28;20042;-54
2022/09/04 10:15:46;;;;;;;3.92;1.63;;;27.20;92.00;;;;;;4990673;28;20026;-54
2022/09/04 10:18:50;;;;;;;2.95;1.70;;;27.60;92.50;;;;;;4992174;28;20038;-54
2022/09/04 10:21:40;;;;;;;2.90;1.30;;;27.90;91.60;;;;;;4990629;28;20035;-53
2022/09/04 10:24:14;;;;;;;5.35;1.40;;;28.20;88.90;;;;;;4992085;28;20062;-53
2022/09/04 10:27:19;;;;;;;1.83;1.30;;;27.80;89.20;;;;;;4991771;28;20066;-53
2022/09/04 10:30:03;;;;;;;4.60;1.42;;;27.50;90.00;;;;;;4961842;28;20062;-53
2022/09/04 10:32:31;;;;;;;3.80;1.52;;;27.30;91.20;;;;;;4991735;28;20040;-53
2022/09/04 10:35:09;;;;;;;3.55;1.25;;;27.70;91.10;;;;;;4991706;28;20045;-53
2022/09/04 10:37:50;;;;;;;4.55;1.88;;;28.30;90.40;;;;;;4991538;28;20034;-53
2022/09/04 10:40:34;;;;;;;4.57;2.00;;;27.90;91.20;;;;;;4991898;28;20031;-53
2022/09/04 10:43:38;;;;;;;4.13;1.77;;;27.70;91.60;;;;;;4991835;28;20038;-53
2022/09/04 10:46:28;;;;;;;7.20;1.80;;;27.70;91.40;;;;;;4995913;28;20041;-53
2022/09/04 10:49:34;;;;;;;3.47;1.70;;;27.90;91.30;;;;;;4996297;28;20045;-53
2022/09/04 10:52:29;;;;;;;6.18;1.80;;;28.30;88.00;;;;;;4995841;28;20040;-53
2022/09/04 10:55:23;;;;;;;3.60;1.90;;;28.50;88.20;;;;;;4942669;28;20063;-53
2022/09/04 10:58:15;;;;;;;5.43;1.60;;;28.60;88.10;;;;;;4995455;28;20058;-53
2022/09/04 11:00:48;;;;;;;6.05;1.77;;;28.50;86.60;;;;;;4994010;28;20029;-53
2022/09/04 11:03:42;;;;;;;4.50;1.50;;;28.50;87.50;;;;;;4995311;28;20052;-54
2022/09/04 11:06:48;;;;;;;2.92;1.50;;;28.90;80.90;;;;;;4996231;28;20033;-52
2022/09/04 11:09:35;;;;;;;3.72;1.50;;;28.80;81.70;;;;;;4966843;28;20399;-54
2022/09/04 11:12:21;;;;;;;4.53;1.50;;;29.10;78.50;;;;;;4996077;28;20109;-53
2022/09/04 11:15:11;;;;;;;2.75;1.50;;;28.40;80.60;;;;;;4995390;28;20387;-54
2022/09/04 11:18:26;;;;;;;4.47;1.27;;;28.40;80.30;;;;;;4995834;28;20117;-54
2022/09/04 11:21:07;;;;;;;1.85;1.30;;;28.50;77.30;;;;;;4995562;28;20041;-53
2022/09/04 11:24:04;;;;;;;1.88;1.20;;;28.20;71.60;;;;;;4995536;28;20104;-53
2022/09/04 11:26:56;;;;;;;2.83;1.58;;;28.70;72.20;;;;;;4995497;28;20069;-54
2022/09/04 11:29:58;;;;;;;3.60;1.40;;;29.20;71.40;;;;;;4996312;28;20403;-54
2022/09/04 11:32:41;;;;;;;3.92;1.10;;;29.60;72.00;;;;;;4995722;28;20510;-54
2022/09/04 11:35:35;;;;;;;3.05;1.40;;;29.20;71.30;;;;;;4995399;28;20084;-54
2022/09/04 11:38:27;;;;;;;3.13;1.70;;;29.00;75.00;;;;;;4994864;28;20526;-54
2022/09/04 11:41:11;;;;;;;;;;;28.90;75.30;;;;;;4995953;28;20069;-53
2022/09/04 11:44:13;;;;;;;4.07;1.30;;;29.40;72.50;;;;;;4995522;28;20012;-54
2022/09/04 11:47:10;;;;;;;3.20;1.30;;;30.60;68.90;;;;;;4995405;28;20033;-54
2022/09/04 11:49:54;;;;;;;1.77;1.15;;;30.10;66.30;;;;;;4982862;28;20057;-53
2022/09/04 11:52:38;;;;;;;3.58;1.50;;;29.10;68.50;;;;;;4994795;28;20027;-54
2022/09/04 11:55:28;;;;;;;1.70;1.20;;;29.00;70.10;;;;;;4994222;28;20350;-54
2022/09/04 11:58:12;;;;;;;3.03;1.45;;;29.60;68.40;;;;;;4995474;28;20074;-54
2022/09/04 12:01:08;;;;;;;3.15;1.17;;;29.80;66.60;;;;;;4994940;28;20033;-54
2022/09/04 12:04:00;;;;;;;2.08;1.05;;;29.60;64.10;;;;;;4995643;28;20040;-55
2022/09/04 12:07:01;;;;;;;1.92;1.20;;;29.60;65.90;;;;;;4995405;28;20514;-54
2022/09/04 12:09:42;;;;;;;3.70;1.17;;;29.90;65.60;;;;;;4995559;28;20050;-54
2022/09/04 12:12:42;;;;;;;3.60;1.35;;;30.00;65.20;;;;;;4995267;28;20045;-54
2022/09/04 12:15:43;;;;;;;6.03;1.17;;;29.20;65.90;;;;;;4994530;28;20434;-54
2022/09/04 12:18:24;;;;;;;3.20;1.35;;;29.40;64.10;;;;;;4994972;28;20395;-53
2022/09/04 12:21:14;;;;;;;3.13;1.15;;;29.80;64.80;;;;;;4995297;28;20034;-53
2022/09/04 12:24:08;;;;;;;1.50;1.35;;;29.70;64.30;;;;;;4995369;28;20052;-55
2022/09/04 12:27:04;;;;;;;4.47;1.20;;;29.40;64.50;;;;;;4995051;28;20484;-54
2022/09/04 12:29:50;;;;;;;1.70;1.17;;;28.90;65.30;;;;;;4993705;28;20021;-53
2022/09/04 12:33:01;;;;;;;2.42;1.20;;;28.90;66.00;;;;;;4994498;28;20030;-54
2022/09/04 12:35:41;;;;;;;3.47;1.08;;;28.80;66.40;;;;;;4994210;28;20045;-54
2022/09/04 12:38:16;;;;;;;4.68;1.05;;;29.10;65.70;;;;;;4994437;28;20080;-54
2022/09/04 12:41:17;;;;;;;5.00;1.38;;;29.50;65.50;;;;;;4994371;28;20033;-54
2022/09/04 12:44:00;;;;;;;4.55;1.30;;;29.50;65.10;;;;;;4984872;28;20050;-54
2022/09/04 12:46:54;;;;;;;1.92;1.20;;;29.00;66.00;;;;;;4994352;28;20796;-54
2022/09/04 12:49:52;;;;;;;2.10;1.00;;;29.10;68.20;;;;;;4994861;28;20468;-55
2022/09/04 12:52:31;;;;;;;3.58;1.40;;;29.60;66.20;;;;;;4993970;28;20049;-55
2022/09/04 12:55:28;;;;;;;2.75;1.20;;;29.30;67.40;;;;;;4994594;28;20026;-53
2022/09/04 12:58:31;;;;;;;3.88;1.27;;;29.70;65.40;;;;;;4994475;28;20089;-53
2022/09/04 13:01:09;;;;;;;1.40;1.00;;;29.80;62.20;;;;;;4965597;28;20072;-53
2022/09/04 13:04:15;;;;;;;6.97;1.40;;;29.70;62.80;;;;;;4994215;28;20464;-55
2022/09/04 13:06:58;;;;;;;2.65;1.20;;;29.60;63.60;;;;;;4932804;29;20293;-54
2022/09/04 13:09:53;;;;;;;3.05;1.10;;;29.30;63.80;;;;;;4988021;28;20030;-54
2022/09/04 13:12:47;;;;;;;1.95;1.02;;;29.00;66.80;;;;;;4993524;28;20033;-54
2022/09/04 13:15:49;;;;;;;3.35;1.30;;;29.20;65.30;;;;;;4993686;28;20069;-54
2022/09/04 13:18:14;;;;;;;;;;;29.60;64.10;;;;;;4944430;28;20448;-54
2022/09/04 13:20:55;;;;;;;3.42;1.17;;;29.90;64.00;;;;;;4993054;28;19991;-54
2022/09/04 13:23:35;;;;;;;2.00;0.90;;;29.60;64.50;;;;;;4993268;28;20147;-54
2022/09/04 13:26:29;;;;;;;3.03;1.00;;;29.60;64.90;;;;;;4993259;28;20073;-54
2022/09/04 13:29:25;;;;;;;4.43;1.52;;;29.70;65.80;;;;;;4993675;28;20038;-54
2022/09/04 13:32:29;;;;;;;4.03;1.10;;;30.40;63.70;;;;;;4993803;28;20370;-54
2022/09/04 13:35:13;;;;;;;3.08;1.10;;;30.10;63.40;;;;;;4964997;28;20439;-54
2022/09/04 13:37:44;;;;;;;2.45;1.30;;;30.00;63.20;;;;;;4993037;28;20096;-54
2022/09/04 13:40:31;;;;;;;1.67;1.35;;;30.10;64.70;;;;;;4992097;28;20030;-54
2022/09/04 13:43:18;;;;;;;5.50;1.15;;;30.10;63.30;;;;;;4993789;28;20514;-55
2022/09/04 13:45:55;;;;;;;2.13;1.20;;;30.10;63.80;;;;;;4992917;28;20026;-54
2022/09/04 13:48:44;;;;;;;5.03;1.40;;;29.70;64.30;;;;;;4993028;28;20030;-54
2022/09/04 13:51:16;;;;;;;2.90;1.10;;;29.20;65.40;;;;;;4992427;28;20023;-54
2022/09/04 13:53:42;;;;;;;2.13;1.05;;;29.30;65.60;;;;;;4992281;28;20105;-54
2022/09/04 13:56:14;;;;;;;3.55;1.15;;;29.50;65.00;;;;;;4991989;28;20595;-54
2022/09/04 13:58:50;;;;;;;2.60;0.93;;;29.40;66.30;;;;;;4992549;28;20391;-54
2022/09/04 14:01:23;;;;;;;4.30;1.27;;;29.60;66.50;;;;;;4992103;28;20088;-54
2022/09/04 14:03:56;;;;;;;3.83;1.40;;;29.60;65.90;;;;;;4992435;28;20041;-55
2022/09/04 14:06:23;;;;;;;2.38;1.10;;;29.90;65.90;;;;;;4992295;28;20459;-52
2022/09/04 14:08:54;;;;;;;2.95;1.20;;;29.70;63.50;;;;;;4993696;28;20030;-52
2022/09/04 14:12:04;;;;;;;4.43;1.10;;;29.50;64.80;;;;;;4992909;28;20105;-52
2022/09/04 14:14:48;;;;;;;2.42;1.10;;;29.70;64.80;;;;;;4992210;28;20022;-52
2022/09/04 14:17:25;;;;;;;1.75;0.95;;;30.50;63.70;;;;;;4991078;28;20117;-52